createdAt,value
2018-09-12T00:01:03.402Z,66.20
2018-09-12T00:03:31.617Z,66.20
2018-09-12T00:05:59.870Z,66.40
2018-09-12T00:08:28.126Z,66.50
2018-09-12T00:10:56.443Z,66.70
2018-09-12T00:13:24.864Z,66.80
2018-09-12T00:15:53.110Z,67.10
2018-09-12T00:18:21.572Z,67.30
2018-09-12T00:20:49.896Z,67.50
2018-09-12T00:25:57.782Z,67.80
2018-09-12T00:28:26.144Z,67.90
2018-09-12T00:30:54.380Z,68.00
2018-09-12T00:33:22.634Z,68.20
2018-09-12T00:35:50.967Z,68.30
2018-09-12T00:38:19.215Z,68.30
2018-09-12T00:40:47.429Z,69.00
2018-09-12T00:43:15.685Z,68.20
2018-09-12T00:45:50.174Z,68.20
2018-09-12T00:48:18.425Z,68.30
2018-09-12T00:50:46.702Z,68.60
2018-09-12T00:53:14.918Z,68.90
2018-09-12T00:55:43.131Z,68.90
2018-09-12T00:58:11.428Z,68.80
2018-09-12T01:00:39.625Z,68.90
2018-09-12T01:03:07.872Z,69.10
2018-09-12T01:05:40.502Z,69.40
2018-09-12T01:08:09.467Z,69.30
2018-09-12T01:10:37.709Z,69.60
2018-09-12T01:13:05.999Z,69.90
2018-09-12T01:15:34.284Z,70.10
2018-09-12T01:18:02.486Z,70.30
2018-09-12T01:20:30.895Z,70.30
2018-09-12T01:22:59.355Z,70.30
2018-09-12T01:25:27.608Z,70.30
2018-09-12T01:27:57.859Z,70.20
2018-09-12T01:30:26.453Z,70.20
2018-09-12T01:32:56.237Z,70.40
2018-09-12T01:35:24.592Z,70.20
2018-09-12T01:37:52.824Z,70.40
2018-09-12T01:40:21.048Z,70.60
2018-09-12T01:42:49.323Z,71.20
2018-09-12T01:45:19.049Z,71.30
2018-09-12T01:47:47.686Z,71.20
2018-09-12T01:50:16.047Z,71.20
2018-09-12T01:52:44.595Z,71.20
2018-09-12T01:55:12.836Z,71.30
2018-09-12T01:57:41.116Z,71.50
2018-09-12T02:00:13.383Z,71.70
2018-09-12T02:02:41.595Z,71.70
2018-09-12T02:05:09.818Z,71.90
2018-09-12T02:07:38.697Z,72.00
2018-09-12T02:10:08.507Z,72.20
2018-09-12T02:12:36.811Z,72.40
2018-09-12T02:15:05.575Z,72.60
2018-09-12T02:17:33.845Z,72.80
2018-09-12T02:20:02.222Z,72.80
2018-09-12T02:22:30.526Z,73.00
2018-09-12T02:24:58.752Z,73.10
2018-09-12T02:27:27.090Z,73.10
2018-09-12T02:29:55.346Z,73.00
2018-09-12T02:32:23.546Z,73.30
2018-09-12T02:34:51.779Z,73.50
2018-09-12T02:37:20.055Z,73.60
2018-09-12T02:39:48.350Z,73.60
2018-09-12T02:42:16.650Z,74.00
2018-09-12T02:44:44.982Z,74.10
2018-09-12T02:47:18.518Z,74.10
2018-09-12T02:49:46.790Z,74.30
2018-09-12T02:52:15.069Z,74.50
2018-09-12T02:54:43.347Z,74.70
2018-09-12T02:57:11.752Z,74.90
2018-09-12T02:59:39.998Z,74.80
2018-09-12T03:02:08.345Z,74.90
2018-09-12T03:04:37.259Z,75.60
2018-09-12T03:07:05.526Z,75.00
2018-09-12T03:09:33.782Z,75.00
2018-09-12T03:12:01.990Z,75.00
2018-09-12T03:14:30.223Z,75.20
2018-09-12T03:16:58.448Z,75.10
2018-09-12T03:19:26.718Z,75.00
2018-09-12T03:21:54.985Z,75.00
2018-09-12T03:24:23.249Z,75.20
2018-09-12T03:26:51.507Z,75.40
2018-09-12T03:29:19.743Z,75.50
2018-09-12T03:31:48.038Z,75.40
2018-09-12T03:34:16.267Z,75.60
2018-09-12T03:36:44.514Z,75.50
2018-09-12T03:39:12.871Z,75.60
2018-09-12T03:41:41.794Z,75.80
2018-09-12T03:44:11.369Z,75.90
2018-09-12T03:46:39.965Z,75.90
2018-09-12T03:49:08.175Z,76.10
2018-09-12T03:51:36.599Z,76.10
2018-09-12T03:54:04.847Z,76.10
2018-09-12T03:56:33.126Z,76.20
2018-09-12T03:59:01.369Z,76.20
2018-09-12T04:01:29.600Z,76.40
2018-09-12T04:03:57.820Z,76.70
2018-09-12T04:06:26.039Z,76.80
2018-09-12T04:08:54.246Z,76.90
2018-09-12T04:11:22.462Z,76.90
2018-09-12T04:13:51.406Z,77.10
2018-09-12T04:16:19.597Z,77.20
2018-09-12T04:18:47.832Z,77.40
2018-09-12T04:21:16.049Z,77.50
2018-09-12T04:23:44.307Z,77.60
2018-09-12T04:26:12.567Z,77.80
2018-09-12T04:28:41.201Z,77.90
2018-09-12T04:31:09.422Z,77.80
2018-09-12T04:33:37.647Z,78.00
2018-09-12T04:36:06.105Z,78.20
2018-09-12T04:38:34.810Z,78.40
2018-09-12T04:41:03.066Z,78.60
2018-09-12T04:43:31.347Z,78.80
2018-09-12T04:45:59.602Z,78.80
2018-09-12T04:48:27.852Z,78.80
2018-09-12T04:50:56.109Z,79.10
2018-09-12T04:53:24.353Z,79.10
2018-09-12T04:55:52.594Z,79.10
2018-09-12T04:58:20.834Z,79.20
2018-09-12T05:00:49.072Z,79.40
2018-09-12T05:03:17.348Z,79.70
2018-09-12T05:05:45.658Z,80.10
2018-09-12T05:08:13.900Z,80.40
2018-09-12T05:10:42.239Z,80.60
2018-09-12T05:13:10.520Z,80.90
2018-09-12T05:15:38.770Z,81.10
2018-09-12T05:18:07.043Z,81.30
2018-09-12T05:20:35.287Z,81.40
2018-09-12T05:23:03.521Z,81.60
2018-09-12T05:25:31.717Z,81.70
2018-09-12T05:28:00.000Z,81.90
2018-09-12T05:30:28.253Z,81.80
2018-09-12T05:32:56.628Z,81.90
2018-09-12T05:35:24.861Z,81.90
2018-09-12T05:37:53.167Z,81.90
2018-09-12T05:40:21.455Z,81.90
2018-09-12T05:42:49.738Z,82.10
2018-09-12T05:45:18.017Z,82.00
2018-09-12T05:47:46.226Z,81.80
2018-09-12T05:50:14.537Z,81.60
2018-09-12T05:52:42.766Z,81.60
2018-09-12T05:55:11.023Z,81.60
2018-09-12T05:57:39.370Z,81.30
2018-09-12T06:00:08.306Z,81.00
2018-09-12T06:02:36.674Z,80.40
2018-09-12T06:05:05.387Z,78.40
2018-09-12T06:07:33.804Z,73.50
2018-09-12T06:10:02.254Z,68.80
2018-09-12T06:12:30.462Z,66.80
2018-09-12T06:14:58.770Z,67.40
2018-09-12T06:17:27.031Z,68.70
2018-09-12T06:19:55.290Z,70.10
2018-09-12T06:22:23.941Z,70.40
2018-09-12T06:27:26.943Z,69.90
2018-09-12T06:29:55.493Z,70.80
2018-09-12T06:32:23.718Z,70.60
2018-09-12T06:34:51.964Z,71.40
2018-09-12T06:37:20.222Z,71.80
2018-09-12T06:39:48.939Z,71.70
2018-09-12T06:42:17.591Z,71.30
2018-09-12T06:44:49.897Z,72.60
2018-09-12T06:47:18.696Z,72.00
2018-09-12T06:49:48.188Z,72.20
2018-09-12T06:52:18.445Z,72.20
2018-09-12T06:54:47.018Z,72.70
2018-09-12T06:57:15.565Z,73.40
2018-09-12T06:59:44.498Z,73.80
2018-09-12T07:02:13.050Z,73.70
2018-09-12T07:04:41.289Z,73.30
2018-09-12T07:07:09.722Z,73.70
2018-09-12T07:09:38.449Z,73.90
2018-09-12T07:12:06.933Z,74.00
2018-09-12T07:14:35.480Z,74.80
2018-09-12T07:17:04.135Z,74.00
2018-09-12T07:19:32.693Z,74.10
2018-09-12T07:22:01.265Z,73.90
2018-09-12T07:24:29.908Z,74.10
2018-09-12T07:26:58.596Z,73.70
2018-09-12T07:29:27.390Z,73.70
2018-09-12T07:31:55.859Z,73.40
2018-09-12T07:34:24.541Z,73.30
2018-09-12T07:36:53.075Z,73.10
2018-09-12T07:39:21.875Z,72.80
2018-09-12T07:41:50.661Z,72.50
2018-09-12T07:44:19.465Z,71.90
2018-09-12T07:46:47.828Z,71.40
2018-09-12T07:49:16.313Z,71.30
2018-09-12T07:51:50.527Z,71.00
2018-09-12T07:54:18.789Z,70.70
2018-09-12T07:56:47.200Z,70.30
2018-09-12T07:59:15.439Z,70.20
2018-09-12T08:01:43.786Z,70.70
2018-09-12T08:04:12.022Z,68.70
2018-09-12T08:06:40.302Z,68.50
2018-09-12T08:09:10.095Z,67.90
2018-09-12T08:11:38.346Z,67.70
2018-09-12T08:14:06.672Z,63.60
2018-09-12T08:16:35.388Z,59.50
2018-09-12T08:19:03.806Z,57.00
2018-09-12T08:21:32.001Z,55.30
2018-09-12T08:24:00.311Z,56.30
2018-09-12T08:26:28.616Z,58.00
2018-09-12T08:28:57.158Z,60.20
2018-09-12T08:31:25.926Z,62.60
2018-09-12T08:33:54.267Z,64.90
2018-09-12T08:36:22.553Z,66.90
2018-09-12T08:38:50.793Z,68.00
2018-09-12T08:41:19.016Z,68.80
2018-09-12T08:43:47.363Z,69.10
2018-09-12T08:46:15.618Z,69.40
2018-09-12T08:48:43.877Z,69.10
2018-09-12T08:51:12.214Z,69.60
2018-09-12T08:53:40.440Z,70.00
2018-09-12T08:56:09.017Z,69.70
2018-09-12T08:58:37.752Z,69.50
2018-09-12T09:01:06.502Z,69.80
2018-09-12T09:03:34.748Z,69.30
2018-09-12T09:06:02.982Z,69.40
2018-09-12T09:08:31.232Z,69.40
2018-09-12T09:10:59.496Z,70.10
2018-09-12T09:13:27.785Z,70.00
2018-09-12T09:15:56.041Z,69.80
2018-09-12T09:18:25.034Z,70.00
2018-09-12T09:20:53.268Z,69.80
2018-09-12T09:23:21.550Z,69.30
2018-09-12T09:25:49.810Z,69.10
2018-09-12T09:28:18.231Z,69.00
2018-09-12T09:30:46.513Z,68.90
2018-09-12T09:33:15.307Z,68.80
2018-09-12T09:35:43.719Z,69.50
2018-09-12T09:38:12.292Z,69.20
2018-09-12T09:40:40.841Z,68.50
2018-09-12T09:43:11.454Z,68.70
2018-09-12T09:45:40.327Z,68.40
2018-09-12T09:48:08.680Z,68.60
2018-09-12T09:50:37.762Z,68.60
2018-09-12T09:53:06.507Z,67.70
2018-09-12T09:55:34.718Z,67.70
2018-09-12T09:58:03.025Z,67.20
2018-09-12T10:00:36.733Z,67.40
2018-09-12T10:03:10.385Z,67.10
2018-09-12T10:05:44.236Z,66.80
2018-09-12T10:08:17.844Z,66.10
2018-09-12T10:10:46.631Z,65.90
2018-09-12T10:13:15.695Z,66.00
2018-09-12T10:15:43.932Z,65.90
2018-09-12T10:18:12.228Z,66.20
2018-09-12T10:20:40.494Z,65.90
2018-09-12T10:23:15.444Z,65.20
2018-09-12T10:25:43.757Z,64.70
2018-09-12T10:28:12.149Z,63.40
2018-09-12T10:30:40.494Z,61.80
2018-09-12T10:33:09.096Z,60.70
2018-09-12T10:35:37.389Z,60.00
2018-09-12T10:38:05.955Z,59.50
2018-09-12T10:40:34.212Z,60.00
2018-09-12T10:43:02.468Z,60.00
2018-09-12T10:45:31.006Z,59.80
2018-09-12T10:47:59.323Z,59.50
2018-09-12T10:50:27.957Z,60.90
2018-09-12T10:52:56.305Z,60.30
2018-09-12T10:55:24.530Z,59.90
2018-09-12T10:57:52.804Z,59.80
2018-09-12T11:00:21.048Z,59.60
2018-09-12T11:02:49.559Z,59.20
2018-09-12T11:05:17.790Z,57.70
2018-09-12T11:07:46.012Z,58.30
2018-09-12T11:10:14.985Z,58.10
2018-09-12T11:12:43.413Z,57.20
2018-09-12T11:15:11.738Z,57.80
2018-09-12T11:17:40.191Z,57.50
2018-09-12T11:20:08.614Z,56.80
2018-09-12T11:22:36.898Z,56.40
2018-09-12T11:25:05.294Z,56.00
2018-09-12T11:27:33.554Z,56.10
2018-09-12T11:30:08.450Z,55.40
2018-09-12T11:32:36.710Z,54.80
2018-09-12T11:35:04.979Z,54.60
2018-09-12T11:37:33.277Z,54.40
2018-09-12T11:40:01.568Z,54.40
2018-09-12T11:42:29.900Z,55.00
2018-09-12T11:44:58.131Z,54.40
2018-09-12T11:47:26.391Z,54.90
2018-09-12T11:49:58.910Z,54.90
2018-09-12T11:52:27.354Z,54.80
2018-09-12T11:54:55.639Z,54.30
2018-09-12T11:57:24.070Z,54.20
2018-09-12T11:59:52.423Z,53.90
2018-09-12T12:02:26.997Z,54.10
2018-09-12T12:04:55.258Z,56.20
2018-09-12T12:07:23.590Z,57.20
2018-09-12T12:09:52.054Z,57.60
2018-09-12T12:12:20.439Z,56.90
2018-09-12T12:14:48.702Z,56.50
2018-09-12T12:17:17.248Z,57.10
2018-09-12T12:19:45.594Z,57.00
2018-09-12T12:22:13.980Z,57.10
2018-09-12T12:24:42.503Z,56.30
2018-09-12T12:27:10.927Z,55.50
2018-09-12T12:29:39.169Z,54.80
2018-09-12T12:32:07.990Z,55.20
2018-09-12T12:34:36.351Z,55.60
2018-09-12T12:37:04.676Z,56.00
2018-09-12T12:39:33.488Z,55.80
2018-09-12T12:42:02.108Z,55.00
2018-09-12T12:44:30.638Z,54.10
2018-09-12T12:46:58.893Z,52.80
2018-09-12T12:49:27.130Z,52.00
2018-09-12T12:51:55.706Z,51.30
2018-09-12T12:54:24.253Z,51.00
2018-09-12T12:56:52.760Z,50.40
2018-09-12T12:59:21.118Z,49.90
2018-09-12T13:01:49.412Z,50.40
2018-09-12T13:04:17.647Z,50.00
2018-09-12T13:06:45.921Z,49.40
2018-09-12T13:09:14.320Z,49.20
2018-09-12T13:11:42.539Z,49.70
2018-09-12T13:14:11.372Z,49.30
2018-09-12T13:16:39.748Z,50.20
2018-09-12T13:19:08.061Z,51.30
2018-09-12T13:21:36.444Z,51.60
2018-09-12T13:24:04.803Z,52.00
2018-09-12T13:26:33.621Z,52.40
2018-09-12T13:29:02.566Z,52.70
2018-09-12T13:31:31.095Z,52.40
2018-09-12T13:33:59.369Z,52.50
2018-09-12T13:36:27.658Z,51.60
2018-09-12T13:38:56.393Z,51.80
2018-09-12T13:41:24.651Z,51.70
2018-09-12T13:43:52.962Z,51.80
2018-09-12T13:46:21.257Z,52.20
2018-09-12T13:48:49.480Z,52.90
2018-09-12T13:51:17.840Z,52.80
2018-09-12T13:53:46.091Z,52.50
2018-09-12T13:56:14.315Z,51.90
2018-09-12T13:58:42.565Z,52.40
2018-09-12T14:01:10.832Z,52.60
2018-09-12T14:03:39.108Z,52.60
2018-09-12T14:06:07.341Z,53.20
2018-09-12T14:08:35.585Z,53.30
2018-09-12T14:11:03.812Z,53.60
2018-09-12T14:13:32.059Z,53.40
2018-09-12T14:16:00.383Z,53.50
2018-09-12T14:18:28.830Z,54.90
2018-09-12T14:20:57.146Z,56.40
2018-09-12T14:23:25.566Z,57.20
2018-09-12T14:25:53.842Z,57.50
2018-09-12T14:28:22.356Z,57.80
2018-09-12T14:30:50.956Z,57.50
2018-09-12T14:33:19.410Z,57.70
2018-09-12T14:35:48.120Z,57.90
2018-09-12T14:38:16.525Z,58.10
2018-09-12T14:40:44.858Z,59.50
2018-09-12T14:43:13.873Z,60.20
2018-09-12T14:45:42.224Z,60.70
2018-09-12T14:48:10.544Z,61.10
2018-09-12T14:50:39.359Z,62.90
2018-09-12T14:53:07.576Z,63.50
2018-09-12T14:55:36.074Z,63.80
2018-09-12T14:58:04.717Z,64.20
2018-09-12T15:00:32.975Z,64.60
2018-09-12T15:03:01.234Z,64.90
2018-09-12T15:05:29.921Z,64.90
2018-09-12T15:07:58.147Z,65.40
2018-09-12T15:10:26.621Z,66.00
2018-09-12T15:12:54.877Z,66.50
2018-09-12T15:15:23.181Z,67.20
2018-09-12T15:17:51.809Z,68.20
2018-09-12T15:20:20.513Z,69.00
2018-09-12T15:22:48.968Z,69.50
2018-09-12T15:25:17.592Z,69.90
2018-09-12T15:27:45.988Z,69.60
2018-09-12T15:30:14.476Z,70.10
2018-09-12T15:32:43.090Z,70.90
2018-09-12T15:35:11.411Z,70.90
2018-09-12T15:37:39.941Z,70.70
2018-09-12T15:40:08.806Z,70.50
2018-09-12T15:42:37.618Z,70.20
2018-09-12T15:45:06.138Z,69.70
2018-09-12T15:47:34.851Z,69.80
2018-09-12T15:50:03.178Z,70.10
2018-09-12T15:52:31.425Z,70.60
2018-09-12T15:54:59.705Z,71.70
2018-09-12T15:57:28.042Z,71.70
2018-09-12T15:59:58.264Z,72.30
2018-09-12T16:02:27.223Z,72.60
2018-09-12T16:04:55.585Z,73.00
2018-09-12T16:07:24.360Z,73.60
2018-09-12T16:09:52.817Z,74.20
2018-09-12T16:12:21.357Z,74.90
2018-09-12T16:14:49.682Z,74.70
2018-09-12T16:17:18.509Z,74.30
2018-09-12T16:19:46.835Z,74.90
2018-09-12T16:22:16.675Z,75.90
2018-09-12T16:24:45.027Z,76.40
2018-09-12T16:27:13.308Z,77.30
2018-09-12T16:29:41.658Z,78.00
2018-09-12T16:32:09.989Z,78.50
2018-09-12T16:34:38.302Z,77.70
2018-09-12T16:37:06.602Z,77.90
2018-09-12T16:39:34.951Z,77.70
2018-09-12T16:42:03.236Z,77.90
2018-09-12T16:44:31.579Z,78.20
2018-09-12T16:46:59.845Z,78.70
2018-09-12T16:49:28.276Z,79.00
2018-09-12T16:51:56.562Z,78.90
2018-09-12T16:54:25.012Z,79.30
2018-09-12T16:56:53.776Z,79.10
2018-09-12T16:59:22.155Z,79.50
2018-09-12T17:01:50.482Z,79.50
2018-09-12T17:04:18.782Z,80.00
2018-09-12T17:06:47.049Z,80.40
2018-09-12T17:09:15.366Z,80.40
2018-09-12T17:11:43.697Z,80.60
2018-09-12T17:14:11.947Z,80.90
2018-09-12T17:16:40.185Z,82.10
2018-09-12T17:19:08.513Z,82.00
2018-09-12T17:21:36.705Z,82.60
2018-09-12T17:24:04.958Z,82.80
2018-09-12T17:26:33.269Z,82.80
2018-09-12T17:29:01.930Z,83.00
2018-09-12T17:31:30.240Z,83.40
2018-09-12T17:33:58.709Z,83.60
2018-09-12T17:36:28.008Z,84.00
2018-09-12T17:38:56.963Z,84.10
2018-09-12T17:41:25.527Z,84.00
2018-09-12T17:43:53.794Z,84.00
2018-09-12T17:46:22.301Z,84.10
2018-09-12T17:48:50.544Z,84.30
2018-09-12T17:51:18.878Z,84.00
2018-09-12T17:53:47.532Z,84.10
2018-09-12T17:56:15.829Z,84.30
2018-09-12T17:58:44.158Z,83.80
2018-09-12T18:01:12.662Z,83.90
2018-09-12T18:03:40.927Z,84.00
2018-09-12T18:06:09.206Z,84.20
2018-09-12T18:08:37.424Z,84.30
2018-09-12T18:11:05.752Z,84.60
2018-09-12T18:13:33.936Z,84.80
2018-09-12T18:16:02.243Z,84.50
2018-09-12T18:18:30.525Z,84.40
2018-09-12T18:20:58.773Z,84.20
2018-09-12T18:23:27.050Z,83.80
2018-09-12T18:25:55.439Z,83.80
2018-09-12T18:28:23.726Z,83.80
2018-09-12T18:30:52.066Z,84.00
2018-09-12T18:33:20.293Z,84.20
2018-09-12T18:35:48.485Z,84.10
2018-09-12T18:38:16.767Z,84.80
2018-09-12T18:40:45.112Z,84.00
2018-09-12T18:43:13.369Z,83.90
2018-09-12T18:45:41.649Z,84.20
2018-09-12T18:48:09.905Z,83.90
2018-09-12T18:50:38.164Z,83.80
2018-09-12T18:53:06.397Z,83.90
2018-09-12T18:55:35.038Z,84.70
2018-09-12T18:58:03.321Z,84.10
2018-09-12T19:00:31.572Z,84.20
2018-09-12T19:03:00.353Z,84.30
2018-09-12T19:05:29.074Z,84.50
2018-09-12T19:07:57.277Z,84.70
2018-09-12T19:10:25.518Z,85.00
2018-09-12T19:12:53.871Z,85.40
2018-09-12T19:15:22.056Z,85.40
2018-09-12T19:17:50.289Z,85.30
2018-09-12T19:20:18.527Z,85.20
2018-09-12T19:22:46.770Z,85.20
2018-09-12T19:25:14.995Z,85.00
2018-09-12T19:27:43.208Z,84.70
2018-09-12T19:30:11.460Z,84.80
2018-09-12T19:32:39.686Z,85.20
2018-09-12T19:35:07.907Z,85.60
2018-09-12T19:37:36.153Z,85.50
2018-09-12T19:40:04.432Z,85.50
2018-09-12T19:42:33.089Z,85.50
2018-09-12T19:45:01.373Z,85.60
2018-09-12T19:47:29.629Z,85.50
2018-09-12T19:49:57.955Z,85.70
2018-09-12T19:52:26.191Z,85.90
2018-09-12T19:54:54.456Z,85.70
2018-09-12T19:57:22.653Z,85.70
2018-09-12T19:59:50.909Z,85.70
2018-09-12T20:02:24.191Z,85.60
2018-09-12T20:04:52.902Z,85.70
2018-09-12T20:07:21.197Z,85.00
2018-09-12T20:09:49.927Z,84.70
2018-09-12T20:12:18.179Z,84.80
2018-09-12T20:14:46.404Z,85.10
2018-09-12T20:17:14.626Z,85.50
2018-09-12T20:19:42.859Z,85.60
2018-09-12T20:22:11.611Z,85.30
2018-09-12T20:24:39.917Z,85.30
2018-09-12T20:27:08.509Z,85.80
2018-09-12T20:29:37.112Z,85.50
2018-09-12T20:32:05.379Z,85.50
2018-09-12T20:34:33.739Z,85.50
2018-09-12T20:37:01.949Z,85.60
2018-09-12T20:39:31.230Z,85.40
2018-09-12T20:41:59.454Z,85.00
2018-09-12T20:44:27.705Z,84.70
2018-09-12T20:46:55.916Z,84.30
2018-09-12T20:49:24.133Z,84.10
2018-09-12T20:51:52.366Z,84.80
2018-09-12T20:54:20.635Z,85.10
2018-09-12T20:56:48.874Z,85.80
2018-09-12T20:59:17.093Z,87.00
2018-09-12T21:01:45.409Z,86.60
2018-09-12T21:04:13.647Z,86.20
2018-09-12T21:06:41.899Z,86.00
2018-09-12T21:09:12.046Z,86.40
2018-09-12T21:11:40.709Z,86.50
2018-09-12T21:14:09.493Z,86.40
2018-09-12T21:16:37.759Z,86.30
2018-09-12T21:19:06.599Z,86.40
2018-09-12T21:21:35.008Z,86.20
2018-09-12T21:24:03.285Z,86.10
2018-09-12T21:26:31.579Z,86.30
2018-09-12T21:28:59.995Z,86.90
2018-09-12T21:31:28.240Z,87.30
2018-09-12T21:33:56.509Z,87.40
2018-09-12T21:36:24.861Z,87.70
2018-09-12T21:38:53.410Z,87.80
2018-09-12T21:41:21.684Z,87.80
2018-09-12T21:43:49.956Z,87.90
2018-09-12T21:46:18.171Z,88.20
2018-09-12T21:48:46.423Z,88.00
2018-09-12T21:51:14.653Z,88.10
2018-09-12T21:53:42.906Z,88.40
2018-09-12T21:56:11.498Z,88.70
2018-09-12T21:58:39.796Z,88.90
2018-09-12T22:01:08.019Z,89.00
2018-09-12T22:03:36.265Z,89.40
2018-09-12T22:06:04.470Z,89.30
2018-09-12T22:08:32.694Z,89.00
2018-09-12T22:11:00.905Z,88.50
2018-09-12T22:13:29.147Z,88.50
2018-09-12T22:15:57.415Z,88.90
2018-09-12T22:18:25.629Z,89.30
2018-09-12T22:20:53.833Z,89.40
2018-09-12T22:23:22.054Z,90.00
2018-09-12T22:25:50.258Z,89.20
2018-09-12T22:28:18.561Z,88.50
2018-09-12T22:30:46.842Z,88.50
2018-09-12T22:33:15.133Z,89.00
2018-09-12T22:35:43.379Z,89.20
2018-09-12T22:38:11.598Z,88.90
2018-09-12T22:40:39.881Z,89.20
2018-09-12T22:43:08.146Z,88.90
2018-09-12T22:45:36.535Z,89.10
2018-09-12T22:48:04.905Z,89.50
2018-09-12T22:50:33.133Z,89.10
2018-09-12T22:53:01.399Z,88.80
2018-09-12T22:55:30.484Z,88.50
2018-09-12T22:57:58.709Z,88.80
2018-09-12T23:00:26.918Z,89.00
2018-09-12T23:02:55.265Z,89.20
2018-09-12T23:05:23.504Z,89.30
2018-09-12T23:07:51.744Z,89.60
2018-09-12T23:10:20.016Z,89.40
2018-09-12T23:12:48.545Z,89.70
2018-09-12T23:15:16.785Z,89.00
2018-09-12T23:17:45.091Z,89.20
2018-09-12T23:20:13.366Z,88.40
2018-09-12T23:22:41.637Z,88.50
2018-09-12T23:25:09.910Z,88.30
2018-09-12T23:27:44.771Z,88.40
2018-09-12T23:30:13.023Z,88.30
2018-09-12T23:32:41.283Z,88.20
2018-09-12T23:35:09.542Z,88.60
2018-09-12T23:37:37.776Z,87.90
2018-09-12T23:40:06.070Z,87.90
2018-09-12T23:42:34.285Z,87.80
2018-09-12T23:45:02.501Z,87.90
2018-09-12T23:47:30.737Z,88.00
2018-09-12T23:49:58.998Z,87.50
2018-09-12T23:52:27.241Z,87.50
2018-09-12T23:54:55.459Z,87.40
2018-09-12T23:57:23.732Z,87.40
2018-09-12T23:59:51.951Z,87.20
